MiSS Stacie — WDF5915 — position and weather

sailwx.info

Track history (hours):
 
Tides and Currents Weather Stations Pressure Air Temp Water Temp Dewpoint Dewpoint Depression Visibility Wind Speed Wind Dir Waves Ship Positions

MiSS Stacie

Owner: Crosby Marine Transportation LLC, Golden Meadow, LA. More information available from US FCC via Universal Licensing System and Coast Guard Vessel Documentation Center.

Last reported at 2015-Aug-30 03:27 UTC. Time now 2015-Sep-02 08:39 UTC.
Position N 30°00' W 089°58'.

Length 20 m; draft 2 m.

Type: Tug. MMSI: 367468640.

Date/timePositionNaut miles runAvg speedWind from/ knotsBaromVisibWave heightAir tempDewpointWater temp
2015-Aug-30 03:27N 30°00' W 089°58'3 3.5
2015-Aug-30 02:32N 29°59' W 090°01'2 1.9
2015-Aug-30 01:33N 29°58' W 090°02'0 0.0
2015-Aug-30 00:30N 29°58' W 090°02'0 0.0
2015-Aug-29 23:25N 29°58' W 090°02'0 0.0
2015-Aug-29 22:31N 29°58' W 090°02'6 2.9
2015-Aug-29 20:29N 29°55' W 089°56'0 0.0
2015-Aug-29 19:12N 29°55' W 089°56'0 0.0
2015-Aug-29 18:25N 29°55' W 089°56'0 0.0
2015-Aug-29 17:24N 29°55' W 089°56'11 0.3
2015-Aug-28 06:09N 29°47' W 090°04'28 3.3
2015-Aug-27 21:33N 29°34' W 090°32'6 6.1
2015-Aug-27 20:33N 29°36' W 090°39'4 3.6
2015-Aug-27 19:33N 29°35' W 090°43'2 2.3
2015-Aug-27 18:33N 29°33' W 090°45'5 4.6
2015-Aug-27 17:33N 29°32' W 090°50'1 0.0
2015-Aug-25 14:33N 29°32' W 090°49'6 5.7
2015-Aug-25 13:33N 29°34' W 090°43'2 2.5
2015-Aug-25 12:33N 29°37' W 090°43'3 2.7
2015-Aug-25 11:33N 29°36' W 090°40'6 5.8
2015-Aug-25 10:33N 29°34' W 090°33'31 4.3
2015-Aug-25 03:17N 29°51' W 090°04'3 3.4
2015-Aug-25 02:15N 29°55' W 090°05'1 0.8
2015-Aug-25 01:31N 29°55' W 090°04'0 0.0
2015-Aug-25 00:32N 29°55' W 090°04'2 1.6
2015-Aug-24 23:31N 29°56' W 090°03'7 0.3
2015-Aug-24 04:10N 29°50' W 090°03'0 0.0
2015-Aug-23 19:27N 29°50' W 090°03'0 0.0
2015-Aug-23 18:25N 29°50' W 090°03'0 0.0
2015-Aug-23 17:30N 29°50' W 090°03'0 0.0
2015-Aug-23 16:33N 29°50' W 090°03'0 0.0
2015-Aug-23 15:33N 29°50' W 090°03'0 0.0
2015-Aug-23 14:32N 29°50' W 090°03'0 0.0
2015-Aug-23 13:31N 29°50' W 090°03'0 0.0
2015-Aug-23 12:33N 29°50' W 090°03'0 0.0
2015-Aug-23 11:33N 29°50' W 090°03'0 0.0
2015-Aug-23 10:33N 29°50' W 090°03'0 0.0
2015-Aug-23 09:33N 29°50' W 090°03'0 0.0
2015-Aug-23 08:32N 29°50' W 090°03'0 0.0
2015-Aug-23 07:33N 29°50' W 090°03'0 0.0
2015-Aug-23 06:33N 29°50' W 090°03'0 0.0
2015-Aug-23 05:28N 29°50' W 090°03'0 0.0
2015-Aug-23 04:29N 29°50' W 090°03'0 0.0
2015-Aug-23 03:31N 29°50' W 090°03'0 0.0
2015-Aug-23 02:29N 29°50' W 090°03'5 0.3
2015-Aug-22 08:26N 29°55' W 090°04'0 0.0
2015-Aug-22 07:32N 29°55' W 090°04'0 0.0
2015-Aug-22 06:18N 29°55' W 090°04'0 0.0
2015-Aug-22 05:33N 29°55' W 090°04'0 0.0
2015-Aug-22 04:28N 29°55' W 090°04'0 0.0
2015-Aug-22 03:26N 29°55' W 090°04'0 0.0
2015-Aug-22 02:31N 29°55' W 090°04'0 0.0
2015-Aug-22 01:31N 29°55' W 090°04'0 0.0
2015-Aug-22 00:33N 29°55' W 090°04'4 3.8
2015-Aug-21 23:31N 29°57' W 090°00'0 0.2
2015-Aug-21 22:33N 29°57' W 090°00'0 0.0
2015-Aug-21 21:29N 29°57' W 090°00'0 0.0
2015-Aug-21 20:33N 29°57' W 090°00'5 4.6
2015-Aug-21 19:30N 29°55' W 090°05'0 0.2
2015-Aug-21 18:30N 29°54' W 090°05'1 0.9
2015-Aug-21 17:23N 29°53' W 090°05'5 0.3
2015-Aug-21 02:29N 29°57' W 090°02'0 0.0
2015-Aug-21 01:26N 29°57' W 090°02'1 0.3
2015-Aug-20 23:15N 29°57' W 090°03'4 3.6
2015-Aug-20 22:14N 29°54' W 090°05'  
Track history (hours):
 
Tides and Currents Weather Stations Pressure Air Temp Water Temp Dewpoint Dewpoint Depression Visibility Wind Speed Wind Dir Waves Ship Positions

MiSS Stacie

Owner: Crosby Marine Transportation LLC, Golden Meadow, LA. More information available from US FCC via Universal Licensing System and Coast Guard Vessel Documentation Center.

Last reported at 2015-Aug-30 03:27 UTC. Time now 2015-Sep-02 08:39 UTC.
Position N 30°00' W 089°58'.

Length 20 m; draft 2 m.

Type: Tug. MMSI: 367468640.

Date/timePositionNaut miles runAvg speedWind from/ knotsBaromVisibWave heightAir tempDewpointWater temp
2015-Aug-30 03:27N 30°00' W 089°58'3 3.5
2015-Aug-30 02:32N 29°59' W 090°01'2 1.9
2015-Aug-30 01:33N 29°58' W 090°02'0 0.0
2015-Aug-30 00:30N 29°58' W 090°02'0 0.0
2015-Aug-29 23:25N 29°58' W 090°02'0 0.0
2015-Aug-29 22:31N 29°58' W 090°02'6 2.9
2015-Aug-29 20:29N 29°55' W 089°56'0 0.0
2015-Aug-29 19:12N 29°55' W 089°56'0 0.0
2015-Aug-29 18:25N 29°55' W 089°56'0 0.0
2015-Aug-29 17:24N 29°55' W 089°56'11 0.3
2015-Aug-28 06:09N 29°47' W 090°04'28 3.3
2015-Aug-27 21:33N 29°34' W 090°32'6 6.1
2015-Aug-27 20:33N 29°36' W 090°39'4 3.6
2015-Aug-27 19:33N 29°35' W 090°43'2 2.3
2015-Aug-27 18:33N 29°33' W 090°45'5 4.6
2015-Aug-27 17:33N 29°32' W 090°50'1 0.0
2015-Aug-25 14:33N 29°32' W 090°49'6 5.7
2015-Aug-25 13:33N 29°34' W 090°43'2 2.5
2015-Aug-25 12:33N 29°37' W 090°43'3 2.7
2015-Aug-25 11:33N 29°36' W 090°40'6 5.8
2015-Aug-25 10:33N 29°34' W 090°33'31 4.3
2015-Aug-25 03:17N 29°51' W 090°04'3 3.4
2015-Aug-25 02:15N 29°55' W 090°05'1 0.8
2015-Aug-25 01:31N 29°55' W 090°04'0 0.0
2015-Aug-25 00:32N 29°55' W 090°04'2 1.6
2015-Aug-24 23:31N 29°56' W 090°03'7 0.3
2015-Aug-24 04:10N 29°50' W 090°03'0 0.0
2015-Aug-23 19:27N 29°50' W 090°03'0 0.0
2015-Aug-23 18:25N 29°50' W 090°03'0 0.0
2015-Aug-23 17:30N 29°50' W 090°03'0 0.0
2015-Aug-23 16:33N 29°50' W 090°03'0 0.0
2015-Aug-23 15:33N 29°50' W 090°03'0 0.0
2015-Aug-23 14:32N 29°50' W 090°03'0 0.0
2015-Aug-23 13:31N 29°50' W 090°03'0 0.0
2015-Aug-23 12:33N 29°50' W 090°03'0 0.0
2015-Aug-23 11:33N 29°50' W 090°03'0 0.0
2015-Aug-23 10:33N 29°50' W 090°03'0 0.0
2015-Aug-23 09:33N 29°50' W 090°03'0 0.0
2015-Aug-23 08:32N 29°50' W 090°03'0 0.0
2015-Aug-23 07:33N 29°50' W 090°03'0 0.0
2015-Aug-23 06:33N 29°50' W 090°03'0 0.0
2015-Aug-23 05:28N 29°50' W 090°03'0 0.0
2015-Aug-23 04:29N 29°50' W 090°03'0 0.0
2015-Aug-23 03:31N 29°50' W 090°03'0 0.0
2015-Aug-23 02:29N 29°50' W 090°03'5 0.3
2015-Aug-22 08:26N 29°55' W 090°04'0 0.0
2015-Aug-22 07:32N 29°55' W 090°04'0 0.0
2015-Aug-22 06:18N 29°55' W 090°04'0 0.0
2015-Aug-22 05:33N 29°55' W 090°04'0 0.0
2015-Aug-22 04:28N 29°55' W 090°04'0 0.0
2015-Aug-22 03:26N 29°55' W 090°04'0 0.0
2015-Aug-22 02:31N 29°55' W 090°04'0 0.0
2015-Aug-22 01:31N 29°55' W 090°04'0 0.0
2015-Aug-22 00:33N 29°55' W 090°04'4 3.8
2015-Aug-21 23:31N 29°57' W 090°00'0 0.2
2015-Aug-21 22:33N 29°57' W 090°00'0 0.0
2015-Aug-21 21:29N 29°57' W 090°00'0 0.0
2015-Aug-21 20:33N 29°57' W 090°00'5 4.6
2015-Aug-21 19:30N 29°55' W 090°05'0 0.2
2015-Aug-21 18:30N 29°54' W 090°05'1 0.9
2015-Aug-21 17:23N 29°53' W 090°05'5 0.3
2015-Aug-21 02:29N 29°57' W 090°02'0 0.0
2015-Aug-21 01:26N 29°57' W 090°02'1 0.3
2015-Aug-20 23:15N 29°57' W 090°03'4 3.6
2015-Aug-20 22:14N 29°54' W 090°05'  

Dump ship's entire track history